createdAt,value
2023-03-31T00:00:11.538Z,99.02
2023-03-31T00:01:11.524Z,99.02
2023-03-31T00:02:11.531Z,99.07
2023-03-31T00:03:11.515Z,99.07
2023-03-31T00:04:11.642Z,98.97
2023-03-31T00:05:11.453Z,98.97
2023-03-31T00:06:11.487Z,98.97
2023-03-31T00:07:11.437Z,98.86
2023-03-31T00:08:11.420Z,98.36
2023-03-31T00:09:11.829Z,98.25
2023-03-31T00:11:11.414Z,98.56
2023-03-31T00:12:11.459Z,98.66
2023-03-31T00:13:11.365Z,98.15
2023-03-31T00:14:11.364Z,97.74
2023-03-31T00:15:11.358Z,98.00
2023-03-31T00:16:11.422Z,98.21
2023-03-31T00:17:11.359Z,98.25
2023-03-31T00:18:11.325Z,98.25
2023-03-31T00:19:11.298Z,98.31
2023-03-31T00:20:11.285Z,98.46
2023-03-31T00:21:11.282Z,98.36
2023-03-31T00:22:11.298Z,98.36
2023-03-31T00:23:11.391Z,98.36
2023-03-31T00:24:11.270Z,98.41
2023-03-31T00:25:11.356Z,98.46
2023-03-31T00:26:11.269Z,98.46
2023-03-31T00:27:11.274Z,98.46
2023-03-31T00:28:11.193Z,98.36
2023-03-31T00:29:11.186Z,98.36
2023-03-31T00:30:11.184Z,98.36
2023-03-31T00:31:11.164Z,98.36
2023-03-31T00:32:11.257Z,98.36
2023-03-31T00:33:11.194Z,98.46
2023-03-31T00:34:11.135Z,98.25
2023-03-31T00:35:11.120Z,98.25
2023-03-31T00:36:11.116Z,98.25
2023-03-31T00:37:11.122Z,98.36
2023-03-31T00:38:11.151Z,98.25
2023-03-31T00:39:11.265Z,97.33
2023-03-31T00:40:11.070Z,97.33
2023-03-31T00:41:11.207Z,97.33
2023-03-31T00:42:11.107Z,97.44
2023-03-31T00:43:11.218Z,97.44
2023-03-31T00:44:11.149Z,97.33
2023-03-31T00:45:11.246Z,97.33
2023-03-31T00:46:11.234Z,97.54
2023-03-31T00:47:11.136Z,97.54
2023-03-31T00:48:10.994Z,97.74
2023-03-31T00:49:11.101Z,97.74
2023-03-31T00:50:10.957Z,97.54
2023-03-31T00:51:11.071Z,97.54
2023-03-31T00:52:11.079Z,97.54
2023-03-31T00:53:11.118Z,97.64
2023-03-31T00:54:11.036Z,97.64
2023-03-31T00:55:11.109Z,97.64
2023-03-31T00:56:11.042Z,97.64
2023-03-31T00:57:11.128Z,97.33
2023-03-31T00:58:11.026Z,97.44
2023-03-31T00:59:10.995Z,97.64
2023-03-31T01:00:10.994Z,97.64
2023-03-31T01:01:10.930Z,97.64
2023-03-31T01:02:10.847Z,97.74
2023-03-31T01:03:10.905Z,97.85
2023-03-31T01:04:10.890Z,97.74
2023-03-31T01:05:10.781Z,97.64
2023-03-31T01:06:10.809Z,97.54
2023-03-31T01:07:10.807Z,97.54
2023-03-31T01:08:10.756Z,97.64
2023-03-31T01:09:10.738Z,97.74
2023-03-31T01:10:10.738Z,97.85
2023-03-31T01:11:10.718Z,97.95
2023-03-31T01:12:10.729Z,97.95
2023-03-31T01:13:10.730Z,98.05
2023-03-31T01:14:10.707Z,98.05
2023-03-31T01:15:10.691Z,98.15
2023-03-31T01:16:10.666Z,98.15
2023-03-31T01:17:10.907Z,98.15
2023-03-31T01:18:10.690Z,98.25
2023-03-31T01:19:10.653Z,98.15
2023-03-31T01:20:10.630Z,98.15
2023-03-31T01:21:10.625Z,98.20
2023-03-31T01:22:10.631Z,98.10
2023-03-31T01:23:10.591Z,98.20
2023-03-31T01:24:10.591Z,98.10
2023-03-31T01:25:10.566Z,98.20
2023-03-31T01:26:10.575Z,98.20
2023-03-31T01:27:10.555Z,98.24
2023-03-31T01:28:10.533Z,98.24
2023-03-31T01:29:10.527Z,98.14
2023-03-31T01:30:10.514Z,98.14
2023-03-31T01:31:10.678Z,98.14
2023-03-31T01:32:10.501Z,98.24
2023-03-31T01:33:10.637Z,98.19
2023-03-31T01:34:10.470Z,98.19
2023-03-31T01:35:10.447Z,98.08
2023-03-31T01:36:10.476Z,97.98
2023-03-31T01:37:10.441Z,98.19
2023-03-31T01:38:10.421Z,98.19
2023-03-31T01:39:10.411Z,98.33
2023-03-31T01:40:10.404Z,98.54
2023-03-31T01:41:10.382Z,98.54
2023-03-31T01:42:10.397Z,98.85
2023-03-31T01:43:10.370Z,98.85
2023-03-31T01:44:10.362Z,98.74
2023-03-31T01:45:10.351Z,98.65
2023-03-31T01:46:10.370Z,98.65
2023-03-31T01:47:10.333Z,98.44
2023-03-31T01:48:10.312Z,98.54
2023-03-31T01:49:10.302Z,98.58
2023-03-31T01:50:10.298Z,98.58
2023-03-31T01:51:10.275Z,98.69
2023-03-31T01:52:10.311Z,98.58
2023-03-31T01:53:10.364Z,98.58
2023-03-31T01:54:10.242Z,98.69
2023-03-31T01:55:10.377Z,98.69
2023-03-31T01:56:10.216Z,98.74
2023-03-31T01:57:10.275Z,98.74
2023-03-31T01:58:10.202Z,98.74
2023-03-31T01:59:10.182Z,98.83
2023-03-31T02:00:10.244Z,98.83
2023-03-31T02:01:10.228Z,98.83
2023-03-31T02:02:10.246Z,98.83
2023-03-31T02:03:10.281Z,98.83
2023-03-31T02:04:10.181Z,98.83
2023-03-31T02:05:10.140Z,98.83
2023-03-31T02:06:10.108Z,98.94
2023-03-31T02:07:10.171Z,99.25
2023-03-31T02:08:10.118Z,99.35
2023-03-31T02:09:10.083Z,99.25
2023-03-31T02:10:10.080Z,99.29
2023-03-31T02:11:10.182Z,99.86
2023-03-31T02:12:10.063Z,99.86
2023-03-31T02:13:10.036Z,99.76
2023-03-31T02:14:10.019Z,99.70
2023-03-31T02:15:10.009Z,99.70
2023-03-31T02:16:10.145Z,99.50
2023-03-31T02:17:10.010Z,99.29
2023-03-31T02:18:09.974Z,99.40
2023-03-31T02:19:09.981Z,99.99
2023-03-31T02:20:10.150Z,99.99
2023-03-31T02:21:09.950Z,99.99
2023-03-31T02:22:09.981Z,99.99
2023-03-31T02:23:09.919Z,99.80
2023-03-31T02:24:09.915Z,99.70
2023-03-31T02:25:09.910Z,99.50
2023-03-31T02:26:09.901Z,99.65
2023-03-31T02:27:09.898Z,99.65
2023-03-31T02:28:09.866Z,99.44
2023-03-31T02:29:09.856Z,99.44
2023-03-31T02:30:09.846Z,99.54
2023-03-31T02:31:09.914Z,99.54
2023-03-31T02:32:09.839Z,99.54
2023-03-31T02:33:09.868Z,99.59
2023-03-31T02:34:09.794Z,99.59
2023-03-31T02:35:09.787Z,99.59
2023-03-31T02:36:10.195Z,99.59
2023-03-31T02:37:09.779Z,99.49
2023-03-31T02:38:09.761Z,99.59
2023-03-31T02:39:09.761Z,99.69
2023-03-31T02:40:09.718Z,99.69
2023-03-31T02:41:09.846Z,99.79
2023-03-31T02:42:09.732Z,99.69
2023-03-31T02:43:09.852Z,99.69
2023-03-31T02:44:09.691Z,99.69
2023-03-31T02:45:09.670Z,99.69
2023-03-31T02:46:09.880Z,99.79
2023-03-31T02:47:09.786Z,99.90
2023-03-31T02:48:09.848Z,99.99
2023-03-31T02:49:09.626Z,99.99
2023-03-31T02:50:09.677Z,99.99
2023-03-31T02:51:09.619Z,99.99
2023-03-31T02:52:09.817Z,99.99
2023-03-31T02:53:09.588Z,99.99
2023-03-31T02:54:09.587Z,99.99
2023-03-31T02:55:09.561Z,99.99
2023-03-31T02:56:09.550Z,99.99
2023-03-31T02:57:09.953Z,99.99
2023-03-31T02:58:09.528Z,99.99
2023-03-31T02:59:09.696Z,99.99
2023-03-31T03:00:09.548Z,99.99
2023-03-31T03:01:09.558Z,99.99
2023-03-31T03:02:09.705Z,99.99
2023-03-31T03:03:09.791Z,99.99
2023-03-31T03:04:09.671Z,99.99
2023-03-31T03:05:09.470Z,99.99
2023-03-31T03:06:09.559Z,99.99
2023-03-31T03:07:09.601Z,99.99
2023-03-31T03:08:09.512Z,99.99
2023-03-31T03:09:09.495Z,99.99
2023-03-31T03:10:09.625Z,99.99
2023-03-31T03:11:09.672Z,99.99
2023-03-31T03:12:09.386Z,99.99
2023-03-31T03:13:10.133Z,99.99
2023-03-31T03:14:09.348Z,99.99
2023-03-31T03:15:09.411Z,99.99
2023-03-31T03:16:09.404Z,99.99
2023-03-31T03:17:09.369Z,99.99
2023-03-31T03:18:09.366Z,99.99
2023-03-31T03:19:09.292Z,99.99
2023-03-31T03:20:09.294Z,99.99
2023-03-31T03:21:09.315Z,99.99
2023-03-31T03:22:09.426Z,99.99
2023-03-31T03:23:10.260Z,99.99
2023-03-31T03:24:09.239Z,99.99
2023-03-31T03:25:09.227Z,99.99
2023-03-31T03:26:09.204Z,99.99
2023-03-31T03:27:09.220Z,99.99
2023-03-31T03:28:09.343Z,99.99
2023-03-31T03:29:09.371Z,99.99
2023-03-31T03:30:09.185Z,99.99
2023-03-31T03:31:09.223Z,99.99
2023-03-31T03:32:09.175Z,99.99
2023-03-31T03:33:09.173Z,99.99
2023-03-31T03:34:09.120Z,99.99
2023-03-31T03:35:09.112Z,99.99
2023-03-31T03:36:09.473Z,99.99
2023-03-31T03:37:09.144Z,99.99
2023-03-31T03:38:09.088Z,99.99
2023-03-31T03:39:09.058Z,99.99
2023-03-31T03:40:09.044Z,99.99
2023-03-31T03:41:14.057Z,99.99
2023-03-31T03:42:09.089Z,99.99
2023-03-31T03:43:09.039Z,99.99
2023-03-31T03:44:09.148Z,99.99
2023-03-31T03:45:09.008Z,99.99
2023-03-31T03:46:09.221Z,99.99
2023-03-31T03:47:09.131Z,99.99
2023-03-31T03:48:09.033Z,99.99
2023-03-31T03:49:08.961Z,99.99
2023-03-31T03:50:08.938Z,99.99
2023-03-31T03:51:08.976Z,99.99
2023-03-31T03:52:08.925Z,99.99
2023-03-31T03:53:08.930Z,99.99
2023-03-31T03:54:08.888Z,99.99
2023-03-31T03:55:08.874Z,99.99
2023-03-31T03:56:08.882Z,99.99
2023-03-31T03:57:08.898Z,99.99
2023-03-31T03:58:08.859Z,99.99
2023-03-31T03:59:08.900Z,99.99
2023-03-31T04:00:08.835Z,99.99
2023-03-31T04:01:08.809Z,99.99
2023-03-31T04:02:08.872Z,99.99
2023-03-31T04:03:08.861Z,99.99
2023-03-31T04:04:08.769Z,99.99
2023-03-31T04:05:08.777Z,99.99
2023-03-31T04:06:09.061Z,99.99
2023-03-31T04:07:08.748Z,99.99
2023-03-31T04:08:08.769Z,99.99
2023-03-31T04:09:08.877Z,99.99
2023-03-31T04:10:08.712Z,99.99
2023-03-31T04:11:08.695Z,99.99
2023-03-31T04:12:08.684Z,99.99
2023-03-31T04:13:08.692Z,99.99
2023-03-31T04:14:08.667Z,99.99
2023-03-31T04:15:08.657Z,99.99
2023-03-31T04:16:08.806Z,99.99
2023-03-31T04:17:08.617Z,99.99
2023-03-31T04:18:08.666Z,99.99
2023-03-31T04:19:08.600Z,99.99
2023-03-31T04:20:08.619Z,99.99
2023-03-31T04:21:08.578Z,99.99
2023-03-31T04:22:08.573Z,99.99
2023-03-31T04:23:08.596Z,99.99
2023-03-31T04:24:08.557Z,99.99
2023-03-31T04:25:08.555Z,99.99
2023-03-31T04:26:08.661Z,99.99
2023-03-31T04:27:08.520Z,99.99
2023-03-31T04:28:16.677Z,99.99
2023-03-31T04:29:08.485Z,99.99
2023-03-31T04:30:08.480Z,99.99
2023-03-31T04:31:08.463Z,99.99
2023-03-31T04:32:08.585Z,99.99
2023-03-31T04:33:08.491Z,99.99
2023-03-31T04:34:08.436Z,99.99
2023-03-31T04:35:08.435Z,99.99
2023-03-31T04:36:08.831Z,99.99
2023-03-31T04:37:08.430Z,99.99
2023-03-31T04:38:08.399Z,99.99
2023-03-31T04:39:08.388Z,99.99
2023-03-31T04:40:08.367Z,99.99
2023-03-31T04:41:08.356Z,99.99
2023-03-31T04:42:08.344Z,99.99
2023-03-31T04:43:08.359Z,99.99
2023-03-31T04:44:08.317Z,99.99
2023-03-31T04:45:08.311Z,99.99
2023-03-31T04:46:08.609Z,99.99
2023-03-31T04:47:08.284Z,99.99
2023-03-31T04:48:08.406Z,99.99
2023-03-31T04:49:08.258Z,99.99
2023-03-31T04:50:08.678Z,99.99
2023-03-31T04:51:08.235Z,99.99
2023-03-31T04:52:08.220Z,99.99
2023-03-31T04:53:08.238Z,99.99
2023-03-31T04:54:08.216Z,99.99
2023-03-31T04:55:08.198Z,99.99
2023-03-31T04:56:08.584Z,99.99
2023-03-31T04:57:08.260Z,99.99
2023-03-31T04:58:08.188Z,99.99
2023-03-31T04:59:08.173Z,99.99
2023-03-31T05:00:08.156Z,99.99
2023-03-31T05:01:08.206Z,99.99
2023-03-31T05:02:08.182Z,99.99
2023-03-31T05:03:08.190Z,99.99
2023-03-31T05:04:08.097Z,99.99
2023-03-31T05:05:08.077Z,99.99
2023-03-31T05:06:08.519Z,99.99
2023-03-31T05:07:08.081Z,99.99
2023-03-31T05:08:08.078Z,99.99
2023-03-31T05:09:08.055Z,99.99
2023-03-31T05:10:08.060Z,99.99
2023-03-31T05:11:08.027Z,99.99
2023-03-31T05:12:08.016Z,99.99
2023-03-31T05:13:08.005Z,99.99
2023-03-31T05:14:07.990Z,99.99
2023-03-31T05:15:07.979Z,99.99
2023-03-31T05:16:08.298Z,99.99
2023-03-31T05:17:07.958Z,99.99
2023-03-31T05:18:08.130Z,99.99
2023-03-31T05:19:07.926Z,99.99
2023-03-31T05:20:07.937Z,99.99
2023-03-31T05:21:07.914Z,99.99
2023-03-31T05:22:07.925Z,99.99
2023-03-31T05:23:07.938Z,99.99
2023-03-31T05:24:07.901Z,99.99
2023-03-31T05:25:07.919Z,99.99
2023-03-31T05:26:08.095Z,99.99
2023-03-31T05:27:07.849Z,99.99
2023-03-31T05:28:07.860Z,99.99
2023-03-31T05:29:07.818Z,99.99
2023-03-31T05:30:07.842Z,99.99
2023-03-31T05:31:08.354Z,99.99
2023-03-31T05:32:07.954Z,99.99
2023-03-31T05:33:07.921Z,99.99
2023-03-31T05:34:07.763Z,99.99
2023-03-31T05:35:07.820Z,99.99
2023-03-31T05:36:08.046Z,99.99
2023-03-31T05:37:07.889Z,99.99
2023-03-31T05:38:07.741Z,99.99
2023-03-31T05:39:07.797Z,99.99
2023-03-31T05:40:07.692Z,99.99
2023-03-31T05:41:07.682Z,99.99
2023-03-31T05:42:07.695Z,99.99
2023-03-31T05:43:07.673Z,99.99
2023-03-31T05:44:07.644Z,99.99
2023-03-31T05:45:09.211Z,99.99
2023-03-31T05:46:08.112Z,99.99
2023-03-31T05:47:07.609Z,99.99
2023-03-31T05:48:07.695Z,99.99
2023-03-31T05:49:07.594Z,99.99
2023-03-31T05:50:07.867Z,99.99
2023-03-31T05:51:07.568Z,99.99
2023-03-31T05:52:07.576Z,99.99
2023-03-31T05:53:07.571Z,99.99
2023-03-31T05:54:07.551Z,99.99
2023-03-31T05:55:07.541Z,99.99
2023-03-31T05:56:07.631Z,99.99
2023-03-31T05:57:07.542Z,99.99
2023-03-31T05:58:07.524Z,99.99
2023-03-31T05:59:07.483Z,99.99
2023-03-31T06:00:07.453Z,99.99
2023-03-31T06:01:07.790Z,99.99
2023-03-31T06:02:07.454Z,99.99
2023-03-31T06:03:07.540Z,99.99
2023-03-31T06:04:07.450Z,99.99
2023-03-31T06:05:07.401Z,99.99
2023-03-31T06:06:07.394Z,99.99
2023-03-31T06:07:07.392Z,99.99
2023-03-31T06:08:07.385Z,99.99
2023-03-31T06:09:07.377Z,99.99
2023-03-31T06:10:07.343Z,99.99
2023-03-31T06:11:07.846Z,99.99
2023-03-31T06:12:07.340Z,99.99
2023-03-31T06:13:07.326Z,99.99
2023-03-31T06:14:07.297Z,99.99
2023-03-31T06:15:07.311Z,99.99
2023-03-31T06:16:07.308Z,99.99
2023-03-31T06:17:07.655Z,99.99
2023-03-31T06:18:07.285Z,99.99
2023-03-31T06:19:07.246Z,99.99
2023-03-31T06:20:19.674Z,99.99
2023-03-31T06:21:07.526Z,99.99
2023-03-31T06:22:07.225Z,99.99
2023-03-31T06:23:07.280Z,99.99
2023-03-31T06:24:07.198Z,99.99
2023-03-31T06:25:07.198Z,99.99
2023-03-31T06:26:07.185Z,99.99
2023-03-31T06:27:07.204Z,99.99
2023-03-31T06:28:07.175Z,99.99
2023-03-31T06:29:07.219Z,99.99
2023-03-31T06:30:07.171Z,99.99
2023-03-31T06:31:07.408Z,99.99
2023-03-31T06:32:07.144Z,99.99
2023-03-31T06:33:07.215Z,99.99
2023-03-31T06:34:07.086Z,99.99
2023-03-31T06:35:07.083Z,99.99
2023-03-31T06:36:07.143Z,99.99
2023-03-31T06:37:07.074Z,99.99
2023-03-31T06:38:07.028Z,99.99
2023-03-31T06:39:07.053Z,99.99
2023-03-31T06:40:07.032Z,99.99
2023-03-31T06:41:07.261Z,99.99
2023-03-31T06:42:06.994Z,99.99
2023-03-31T06:43:07.005Z,99.99
2023-03-31T06:44:07.005Z,99.99
2023-03-31T06:45:06.997Z,99.99
2023-03-31T06:46:07.410Z,99.99
2023-03-31T06:47:06.968Z,99.99
2023-03-31T06:48:07.009Z,99.99
2023-03-31T06:49:06.965Z,99.99
2023-03-31T06:50:06.909Z,99.99
2023-03-31T06:51:06.922Z,99.99
2023-03-31T06:52:06.884Z,99.99
2023-03-31T06:53:06.902Z,99.99
2023-03-31T06:54:07.024Z,99.99
2023-03-31T06:55:06.888Z,99.99
2023-03-31T06:56:07.025Z,99.99
2023-03-31T06:57:06.890Z,99.99
2023-03-31T06:58:06.837Z,99.84
2023-03-31T06:59:06.832Z,99.54
2023-03-31T07:00:06.924Z,99.23
2023-03-31T07:01:07.205Z,99.13
2023-03-31T07:02:06.801Z,99.23
2023-03-31T07:03:06.911Z,99.23
2023-03-31T07:04:06.788Z,99.13
2023-03-31T07:05:06.734Z,98.93
2023-03-31T07:06:06.768Z,98.93
2023-03-31T07:07:06.720Z,98.82
2023-03-31T07:08:06.703Z,98.93
2023-03-31T07:09:06.725Z,98.41
2023-03-31T07:10:07.307Z,98.41
2023-03-31T07:11:07.020Z,98.52
2023-03-31T07:12:06.836Z,98.61
2023-03-31T07:13:06.669Z,98.93
2023-03-31T07:14:07.727Z,99.02
2023-03-31T07:15:06.615Z,99.23
2023-03-31T07:16:07.255Z,99.33
2023-03-31T07:17:06.595Z,99.43
2023-03-31T07:18:06.712Z,99.54
2023-03-31T07:19:06.625Z,99.64
2023-03-31T07:20:06.598Z,99.95
2023-03-31T07:21:09.071Z,99.99
2023-03-31T07:22:06.595Z,99.99
2023-03-31T07:23:06.608Z,99.99
2023-03-31T07:24:06.570Z,99.99
2023-03-31T07:25:06.587Z,99.99
2023-03-31T07:26:06.642Z,99.99
2023-03-31T07:27:06.510Z,99.99
2023-03-31T07:28:06.579Z,99.99
2023-03-31T07:29:06.474Z,99.99
2023-03-31T07:30:06.454Z,99.99
2023-03-31T07:31:06.619Z,99.99
2023-03-31T07:32:06.490Z,99.99
2023-03-31T07:33:06.470Z,99.99
2023-03-31T07:34:06.426Z,99.99
2023-03-31T07:35:06.476Z,99.99
2023-03-31T07:36:12.898Z,99.99
2023-03-31T07:37:06.431Z,99.99
2023-03-31T07:38:06.362Z,99.99
2023-03-31T07:39:06.370Z,99.99
2023-03-31T07:40:06.348Z,99.99
2023-03-31T07:41:09.544Z,99.99
2023-03-31T07:42:06.327Z,99.99
2023-03-31T07:43:06.355Z,99.99
2023-03-31T07:44:06.316Z,99.99
2023-03-31T07:45:06.298Z,99.99
2023-03-31T07:46:06.463Z,99.99
2023-03-31T07:47:06.359Z,99.99
2023-03-31T07:48:06.287Z,99.99
2023-03-31T07:49:06.254Z,99.99
2023-03-31T07:50:06.242Z,99.99
2023-03-31T07:51:06.379Z,99.99
2023-03-31T07:52:06.236Z,99.99
2023-03-31T07:53:06.208Z,99.99
2023-03-31T07:54:06.217Z,99.99
2023-03-31T07:55:06.202Z,99.99
2023-03-31T07:56:06.240Z,99.99
2023-03-31T07:57:06.227Z,99.99
2023-03-31T07:58:06.156Z,99.99
2023-03-31T07:59:06.167Z,99.99
2023-03-31T08:00:06.155Z,99.99
2023-03-31T08:01:06.471Z,99.99
2023-03-31T08:02:06.126Z,99.99
2023-03-31T08:03:06.220Z,99.99
2023-03-31T08:04:06.135Z,99.99
2023-03-31T08:05:06.081Z,99.99
2023-03-31T08:06:06.307Z,99.99
2023-03-31T08:07:06.058Z,99.99
2023-03-31T08:08:06.032Z,99.99
2023-03-31T08:09:06.037Z,99.99
2023-03-31T08:10:07.514Z,99.99
2023-03-31T08:11:06.173Z,99.99
2023-03-31T08:12:06.012Z,99.99
2023-03-31T08:13:06.003Z,99.99
2023-03-31T08:14:06.013Z,99.99
2023-03-31T08:15:05.950Z,99.99
2023-03-31T08:16:06.238Z,99.99
2023-03-31T08:17:05.969Z,99.99
2023-03-31T08:18:05.962Z,99.99
2023-03-31T08:19:05.912Z,99.99
2023-03-31T08:20:07.744Z,99.99
2023-03-31T08:21:06.168Z,99.99
2023-03-31T08:22:05.949Z,99.99
2023-03-31T08:23:05.893Z,99.99
2023-03-31T08:24:05.894Z,99.99
2023-03-31T08:25:05.898Z,99.99
2023-03-31T08:26:05.990Z,99.99
2023-03-31T08:27:11.914Z,99.99
2023-03-31T08:28:05.817Z,99.99
2023-03-31T08:29:05.825Z,99.99
2023-03-31T08:30:05.815Z,99.99
2023-03-31T08:31:05.784Z,99.99
2023-03-31T08:32:05.919Z,99.99
2023-03-31T08:33:05.895Z,99.99
2023-03-31T08:34:05.826Z,99.99
2023-03-31T08:35:05.757Z,99.99
2023-03-31T08:36:06.080Z,99.99
2023-03-31T08:37:06.075Z,99.99
2023-03-31T08:38:05.693Z,99.99
2023-03-31T08:39:05.705Z,99.99
2023-03-31T08:40:05.704Z,99.99
2023-03-31T08:41:05.695Z,99.99
2023-03-31T08:42:06.053Z,99.99
2023-03-31T08:43:05.654Z,99.99
2023-03-31T08:44:05.663Z,99.99
2023-03-31T08:45:05.636Z,99.99
2023-03-31T08:46:06.040Z,99.99
2023-03-31T08:47:05.611Z,99.99
2023-03-31T08:48:07.369Z,99.99
2023-03-31T08:49:05.585Z,99.99
2023-03-31T08:50:05.595Z,99.99
2023-03-31T08:51:05.781Z,99.99
2023-03-31T08:52:05.580Z,99.99
2023-03-31T08:53:05.574Z,99.99
2023-03-31T08:54:05.603Z,99.99
2023-03-31T08:55:05.558Z,99.99
2023-03-31T08:56:05.689Z,99.99
2023-03-31T08:57:05.564Z,99.99
2023-03-31T08:58:05.484Z,99.99
2023-03-31T08:59:05.533Z,99.99
2023-03-31T09:00:05.474Z,99.99
2023-03-31T09:01:05.665Z,99.99
2023-03-31T09:02:05.521Z,99.99
2023-03-31T09:03:07.316Z,99.99
2023-03-31T09:04:07.149Z,99.99
2023-03-31T09:05:05.475Z,99.99
2023-03-31T09:06:05.432Z,99.99
2023-03-31T09:07:05.365Z,99.99
2023-03-31T09:08:05.386Z,99.99
2023-03-31T09:09:05.417Z,99.99
2023-03-31T09:10:05.363Z,99.99
2023-03-31T09:11:05.342Z,99.99
2023-03-31T09:12:05.358Z,99.99
2023-03-31T09:13:05.294Z,99.99
2023-03-31T09:14:05.313Z,99.99
2023-03-31T09:15:05.332Z,99.99
2023-03-31T09:16:05.857Z,99.99
2023-03-31T09:17:05.322Z,99.99
2023-03-31T09:18:05.253Z,99.99
2023-03-31T09:19:05.258Z,99.99
2023-03-31T09:20:05.239Z,99.99
2023-03-31T09:21:05.412Z,99.99
2023-03-31T09:22:05.218Z,99.99
2023-03-31T09:23:05.206Z,99.99
2023-03-31T09:24:05.258Z,99.99
2023-03-31T09:25:05.193Z,99.99
2023-03-31T09:26:05.529Z,99.99
2023-03-31T09:27:05.169Z,99.99
2023-03-31T09:28:05.218Z,99.99
2023-03-31T09:29:05.162Z,99.99
2023-03-31T09:30:05.144Z,99.99
2023-03-31T09:31:05.137Z,99.99
2023-03-31T09:32:05.093Z,99.80
2023-03-31T09:33:05.190Z,99.80
2023-03-31T09:34:05.125Z,99.76
2023-03-31T09:35:05.112Z,99.76
2023-03-31T09:36:05.145Z,99.76
2023-03-31T09:37:05.044Z,99.66
2023-03-31T09:38:05.052Z,99.45
2023-03-31T09:39:05.062Z,99.55
2023-03-31T09:40:05.012Z,99.66
2023-03-31T09:41:05.052Z,99.76
2023-03-31T09:42:05.073Z,99.86
2023-03-31T09:43:05.014Z,99.96
2023-03-31T09:44:04.997Z,99.91
2023-03-31T09:45:04.987Z,99.81
2023-03-31T09:46:09.125Z,99.71
2023-03-31T09:47:05.065Z,99.41
2023-03-31T09:48:04.986Z,99.30
2023-03-31T09:49:04.946Z,99.51
2023-03-31T09:50:04.878Z,99.41
2023-03-31T09:51:04.907Z,99.41
2023-03-31T09:52:04.906Z,99.61
2023-03-31T09:53:04.859Z,99.71
2023-03-31T09:54:04.885Z,99.61
2023-03-31T09:55:04.861Z,98.90
2023-03-31T09:56:05.275Z,98.39
2023-03-31T09:57:04.846Z,98.49
2023-03-31T09:58:04.841Z,98.69
2023-03-31T09:59:04.806Z,98.69
2023-03-31T10:00:04.797Z,98.90
2023-03-31T10:01:05.122Z,98.79
2023-03-31T10:02:04.922Z,98.18
2023-03-31T10:03:04.811Z,98.18
2023-03-31T10:04:04.818Z,98.28
2023-03-31T10:05:04.750Z,98.39
2023-03-31T10:06:04.749Z,98.69
2023-03-31T10:07:04.741Z,98.79
2023-03-31T10:08:04.697Z,98.85
2023-03-31T10:09:06.347Z,98.79
2023-03-31T10:10:04.692Z,98.39
2023-03-31T10:11:04.843Z,98.28
2023-03-31T10:12:04.665Z,98.28
2023-03-31T10:13:04.656Z,98.28
2023-03-31T10:14:04.654Z,98.44
2023-03-31T10:15:04.645Z,98.65
2023-03-31T10:16:04.823Z,98.75
2023-03-31T10:17:04.593Z,98.70
2023-03-31T10:18:04.634Z,98.50
2023-03-31T10:19:04.581Z,98.19
2023-03-31T10:20:04.560Z,97.69
2023-03-31T10:21:04.803Z,97.48
2023-03-31T10:22:04.563Z,97.58
2023-03-31T10:23:05.383Z,97.58
2023-03-31T10:24:04.554Z,97.48
2023-03-31T10:25:04.527Z,97.58
2023-03-31T10:26:04.501Z,96.97
2023-03-31T10:27:04.512Z,96.46
2023-03-31T10:28:11.058Z,96.87
2023-03-31T10:29:04.479Z,97.17
2023-03-31T10:30:04.460Z,97.38
2023-03-31T10:31:04.616Z,97.48
2023-03-31T10:32:04.420Z,97.89
2023-03-31T10:33:15.155Z,97.89
2023-03-31T10:34:04.424Z,97.89
2023-03-31T10:35:04.402Z,97.99
2023-03-31T10:36:04.415Z,97.99
2023-03-31T10:37:04.383Z,97.78
2023-03-31T10:38:06.076Z,97.78
2023-03-31T10:39:04.355Z,97.78
2023-03-31T10:40:04.361Z,97.89
2023-03-31T10:41:04.551Z,97.78
2023-03-31T10:42:04.315Z,97.58
2023-03-31T10:43:04.344Z,97.28
2023-03-31T10:44:04.328Z,97.07
2023-03-31T10:45:04.276Z,96.56
2023-03-31T10:46:04.349Z,96.77
2023-03-31T10:47:04.407Z,97.17
2023-03-31T10:48:04.389Z,97.38
2023-03-31T10:49:04.252Z,97.17
2023-03-31T10:50:04.250Z,97.07
2023-03-31T10:51:04.467Z,97.17
2023-03-31T10:52:04.477Z,97.17
2023-03-31T10:53:04.195Z,97.23
2023-03-31T10:54:04.343Z,97.33
2023-03-31T10:55:04.177Z,97.33
2023-03-31T10:56:04.937Z,97.23
2023-03-31T10:57:04.797Z,97.29
2023-03-31T10:58:04.168Z,96.88
2023-03-31T10:59:06.458Z,96.58
2023-03-31T11:00:04.186Z,96.27
2023-03-31T11:01:05.317Z,96.17
2023-03-31T11:02:04.224Z,95.86
2023-03-31T11:03:04.594Z,96.17
2023-03-31T11:04:04.681Z,96.33
2023-03-31T11:05:04.304Z,96.23
2023-03-31T11:06:04.530Z,95.82
2023-03-31T11:07:04.083Z,95.56
2023-03-31T11:08:04.042Z,95.56
2023-03-31T11:09:04.056Z,96.17
2023-03-31T11:10:04.016Z,96.11
2023-03-31T11:11:04.255Z,96.83
2023-03-31T11:12:03.999Z,97.33
2023-03-31T11:13:04.012Z,96.83
2023-03-31T11:14:03.978Z,96.46
2023-03-31T11:15:03.991Z,96.77
2023-03-31T11:16:04.008Z,97.38
2023-03-31T11:17:04.046Z,97.48
2023-03-31T11:18:04.000Z,97.22
2023-03-31T11:19:03.950Z,97.37
2023-03-31T11:20:03.895Z,97.98
2023-03-31T11:21:04.012Z,98.28
2023-03-31T11:22:03.882Z,98.49
2023-03-31T11:23:03.885Z,98.69
2023-03-31T11:24:03.876Z,98.90
2023-03-31T11:25:03.854Z,98.79
2023-03-31T11:26:03.838Z,98.90
2023-03-31T11:27:03.830Z,98.90
2023-03-31T11:28:03.817Z,98.79
2023-03-31T11:29:03.841Z,99.00
2023-03-31T11:30:03.826Z,99.00
2023-03-31T11:31:03.926Z,98.79
2023-03-31T11:32:03.809Z,98.79
2023-03-31T11:33:03.795Z,98.90
2023-03-31T11:34:03.846Z,98.64
2023-03-31T11:35:03.741Z,98.74
2023-03-31T11:36:03.985Z,98.74
2023-03-31T11:37:03.707Z,98.84
2023-03-31T11:38:03.707Z,98.94
2023-03-31T11:39:03.680Z,98.84
2023-03-31T11:40:03.682Z,98.94
2023-03-31T11:41:03.756Z,99.04
2023-03-31T11:42:03.655Z,99.15
2023-03-31T11:43:03.666Z,99.20
2023-03-31T11:44:03.651Z,99.20
2023-03-31T11:45:03.653Z,99.20
2023-03-31T11:46:03.675Z,99.20
2023-03-31T11:47:03.602Z,99.20
2023-03-31T11:48:06.143Z,99.10
2023-03-31T11:49:03.590Z,99.20
2023-03-31T11:50:03.585Z,99.20
2023-03-31T11:51:03.548Z,99.10
2023-03-31T11:52:03.556Z,99.20
2023-03-31T11:53:03.518Z,99.30
2023-03-31T11:54:03.527Z,99.41
2023-03-31T11:55:03.630Z,99.61
2023-03-31T11:56:03.512Z,99.61
2023-03-31T11:57:03.579Z,99.51
2023-03-31T11:58:03.479Z,99.51
2023-03-31T11:59:03.455Z,99.41
2023-03-31T12:00:03.462Z,99.20
2023-03-31T12:01:03.693Z,99.20
2023-03-31T12:02:03.421Z,99.20
2023-03-31T12:03:03.494Z,99.30
2023-03-31T12:04:03.511Z,99.30
2023-03-31T12:05:03.408Z,99.30
2023-03-31T12:06:03.389Z,99.51
2023-03-31T12:07:03.376Z,99.51
2023-03-31T12:08:03.364Z,99.51
2023-03-31T12:09:03.388Z,99.41
2023-03-31T12:10:03.365Z,99.51
2023-03-31T12:11:03.379Z,99.51
2023-03-31T12:12:03.347Z,99.61
2023-03-31T12:13:03.524Z,99.61
2023-03-31T12:14:03.294Z,99.51
2023-03-31T12:15:03.298Z,99.51
2023-03-31T12:16:03.394Z,99.41
2023-03-31T12:17:03.265Z,99.30
2023-03-31T12:18:03.295Z,99.20
2023-03-31T12:19:03.239Z,99.10
2023-03-31T12:20:03.242Z,99.10
2023-03-31T12:21:03.242Z,99.10
2023-03-31T12:22:03.205Z,99.10
2023-03-31T12:23:03.186Z,99.20
2023-03-31T12:24:03.208Z,99.30
2023-03-31T12:25:03.198Z,99.30
2023-03-31T12:26:03.174Z,99.26
2023-03-31T12:27:03.146Z,99.16
2023-03-31T12:28:03.132Z,99.05
2023-03-31T12:29:03.135Z,99.05
2023-03-31T12:30:03.122Z,98.80
2023-03-31T12:31:03.254Z,97.42
2023-03-31T12:32:03.728Z,97.07
2023-03-31T12:33:03.300Z,97.28
2023-03-31T12:34:03.221Z,97.69
2023-03-31T12:35:03.211Z,97.84
2023-03-31T12:36:03.143Z,97.74
2023-03-31T12:37:03.079Z,97.84
2023-03-31T12:38:03.041Z,97.60
2023-03-31T12:39:03.008Z,97.19
2023-03-31T12:40:03.028Z,96.47
2023-03-31T12:41:02.985Z,96.58
2023-03-31T12:42:02.993Z,96.47
2023-03-31T12:43:02.979Z,96.37
2023-03-31T12:44:02.956Z,96.02
2023-03-31T12:45:02.970Z,96.12
2023-03-31T12:46:02.947Z,95.92
2023-03-31T12:47:03.004Z,96.02
2023-03-31T12:48:02.960Z,96.02
2023-03-31T12:49:02.909Z,95.62
2023-03-31T12:50:02.913Z,95.21
2023-03-31T12:51:02.951Z,95.41
2023-03-31T12:52:02.884Z,95.31
2023-03-31T12:53:02.878Z,95.41